createdAt,value
2023-05-13T00:00:30.728Z,22.25
2023-05-13T00:02:59.906Z,22.25
2023-05-13T00:05:26.639Z,22.24
2023-05-13T00:07:53.254Z,22.24
2023-05-13T00:10:21.155Z,22.23
2023-05-13T00:12:48.743Z,22.22
2023-05-13T00:15:17.371Z,22.22
2023-05-13T00:17:46.460Z,22.22
2023-05-13T00:20:14.062Z,22.19
2023-05-13T00:22:40.381Z,22.19
2023-05-13T00:25:08.426Z,22.19
2023-05-13T00:27:36.234Z,22.19
2023-05-13T00:30:03.569Z,22.19
2023-05-13T00:32:31.736Z,22.18
2023-05-13T00:34:59.332Z,22.18
2023-05-13T00:37:25.659Z,22.17
2023-05-13T00:39:51.971Z,22.17
2023-05-13T00:42:18.867Z,22.16
2023-05-13T00:44:48.826Z,22.17
2023-05-13T00:47:16.309Z,22.17
2023-05-13T00:49:42.994Z,22.16
2023-05-13T00:52:13.152Z,22.17
2023-05-13T00:54:41.062Z,22.16
2023-05-13T00:57:08.825Z,22.16
2023-05-13T00:59:41.961Z,22.16
2023-05-13T01:02:39.541Z,22.15
2023-05-13T01:05:24.848Z,22.16
2023-05-13T01:07:51.190Z,22.14
2023-05-13T01:10:33.573Z,22.14
2023-05-13T01:13:04.170Z,22.13
2023-05-13T01:15:31.643Z,22.13
2023-05-13T01:18:10.534Z,22.12
2023-05-13T01:20:40.067Z,22.11
2023-05-13T01:23:10.701Z,22.11
2023-05-13T01:25:37.102Z,22.12
2023-05-13T01:28:03.416Z,22.12
2023-05-13T01:30:30.076Z,22.12
2023-05-13T01:32:57.197Z,22.12
2023-05-13T01:35:29.114Z,22.11
2023-05-13T01:37:59.606Z,22.11
2023-05-13T01:40:32.658Z,22.12
2023-05-13T01:43:03.661Z,22.12
2023-05-13T01:45:33.124Z,22.10
2023-05-13T01:48:03.567Z,22.11
2023-05-13T01:50:30.239Z,22.09
2023-05-13T01:53:01.389Z,22.09
2023-05-13T01:55:27.798Z,22.09
2023-05-13T01:57:54.364Z,22.09
2023-05-13T02:00:27.356Z,22.07
2023-05-13T02:02:54.036Z,22.05
2023-05-13T02:05:23.376Z,22.05
2023-05-13T02:07:51.216Z,22.05
2023-05-13T02:10:19.888Z,22.04
2023-05-13T02:12:49.418Z,22.04
2023-05-13T02:15:21.738Z,22.04
2023-05-13T02:17:48.728Z,22.02
2023-05-13T02:20:15.504Z,22.02
2023-05-13T02:22:46.367Z,22.02
2023-05-13T02:28:00.584Z,22.00
2023-05-13T02:30:27.202Z,21.99
2023-05-13T02:32:54.933Z,21.99
2023-05-13T02:35:24.412Z,22.00
2023-05-13T02:37:51.302Z,21.98
2023-05-13T02:40:21.134Z,21.97
2023-05-13T02:42:50.246Z,21.97
2023-05-13T02:48:40.272Z,21.98
2023-05-13T02:51:16.502Z,21.97
2023-05-13T02:53:48.867Z,21.98
2023-05-13T02:56:18.948Z,21.97
2023-05-13T02:58:49.299Z,21.97
2023-05-13T03:01:23.951Z,21.97
2023-05-13T03:03:51.219Z,21.98
2023-05-13T03:06:24.999Z,21.95
2023-05-13T03:08:52.718Z,21.94
2023-05-13T03:11:24.574Z,21.93
2023-05-13T03:13:51.027Z,21.93
2023-05-13T03:16:19.849Z,21.91
2023-05-13T03:18:46.746Z,21.92
2023-05-13T03:21:13.598Z,21.90
2023-05-13T03:23:41.263Z,21.90
2023-05-13T03:26:09.690Z,21.90
2023-05-13T03:31:17.708Z,21.89
2023-05-13T03:33:54.090Z,21.88
2023-05-13T03:36:27.065Z,21.88
2023-05-13T03:41:36.240Z,21.87
2023-05-13T03:44:02.739Z,21.87
2023-05-13T03:46:29.620Z,21.88
2023-05-13T03:48:56.261Z,21.87
2023-05-13T03:51:23.603Z,21.88
2023-05-13T03:53:52.581Z,21.88
2023-05-13T03:56:22.551Z,21.88
2023-05-13T03:58:51.042Z,21.87
2023-05-13T04:01:19.369Z,21.87
2023-05-13T04:03:46.846Z,21.87
2023-05-13T04:06:17.161Z,21.85
2023-05-13T04:08:45.366Z,21.85
2023-05-13T04:11:15.099Z,21.85
2023-05-13T04:13:49.314Z,21.84
2023-05-13T04:16:17.514Z,21.82
2023-05-13T04:18:43.962Z,21.81
2023-05-13T04:21:12.652Z,21.81
2023-05-13T04:23:40.920Z,21.83
2023-05-13T04:26:07.252Z,21.84
2023-05-13T04:28:34.882Z,21.83
2023-05-13T04:31:02.695Z,21.84
2023-05-13T04:33:29.255Z,21.82
2023-05-13T04:35:55.711Z,21.85
2023-05-13T04:38:22.373Z,21.85
2023-05-13T04:40:50.058Z,21.84
2023-05-13T04:43:17.831Z,21.84
2023-05-13T04:45:54.672Z,21.87
2023-05-13T04:48:21.263Z,21.85
2023-05-13T04:50:48.755Z,21.87
2023-05-13T04:53:18.307Z,21.87
2023-05-13T04:55:47.643Z,21.87
2023-05-13T04:58:14.788Z,21.88
2023-05-13T05:00:45.110Z,21.90
2023-05-13T05:03:11.939Z,21.92
2023-05-13T05:05:38.301Z,21.98
2023-05-13T05:08:05.006Z,22.06
2023-05-13T05:10:32.896Z,22.11
2023-05-13T05:13:01.299Z,22.14
2023-05-13T05:15:33.278Z,22.17
2023-05-13T05:17:59.726Z,22.19
2023-05-13T05:20:26.649Z,22.23
2023-05-13T05:22:53.960Z,22.25
2023-05-13T05:25:21.570Z,22.28
2023-05-13T05:27:49.573Z,22.32
2023-05-13T05:30:15.890Z,22.34
2023-05-13T05:32:48.592Z,22.36
2023-05-13T05:35:19.734Z,22.43
2023-05-13T05:37:46.708Z,22.43
2023-05-13T05:40:13.702Z,22.46
2023-05-13T05:42:41.156Z,22.48
2023-05-13T05:45:09.334Z,22.54
2023-05-13T05:47:35.744Z,22.58
2023-05-13T05:50:03.986Z,22.62
2023-05-13T05:52:32.662Z,22.63
2023-05-13T05:54:59.825Z,22.63
2023-05-13T05:57:27.552Z,22.66
2023-05-13T05:59:57.635Z,22.68
2023-05-13T06:02:24.047Z,22.66
2023-05-13T06:04:54.125Z,22.69
2023-05-13T06:07:20.803Z,22.71
2023-05-13T06:09:51.800Z,22.75
2023-05-13T06:12:31.773Z,22.81
2023-05-13T06:14:59.846Z,22.83
2023-05-13T06:17:30.790Z,22.88
2023-05-13T06:19:59.114Z,22.89
2023-05-13T06:22:27.499Z,22.91
2023-05-13T06:24:55.239Z,22.98
2023-05-13T06:27:21.935Z,23.02
2023-05-13T06:29:49.741Z,23.06
2023-05-13T06:32:17.762Z,23.10
2023-05-13T06:34:47.491Z,23.12
2023-05-13T06:37:18.178Z,23.16
2023-05-13T06:39:48.633Z,23.22
2023-05-13T06:42:17.840Z,23.23
2023-05-13T06:44:48.108Z,23.29
2023-05-13T06:47:16.513Z,23.32
2023-05-13T06:49:44.320Z,23.34
2023-05-13T06:52:10.669Z,23.35
2023-05-13T06:54:36.998Z,23.40
2023-05-13T06:57:14.499Z,23.01
2023-05-13T06:59:41.009Z,22.18
2023-05-13T07:02:11.294Z,21.82
2023-05-13T07:04:38.796Z,21.66
2023-05-13T07:07:07.753Z,22.24
2023-05-13T07:09:34.600Z,22.60
2023-05-13T07:12:01.239Z,22.76
2023-05-13T07:14:28.360Z,22.86
2023-05-13T07:16:55.889Z,22.85
2023-05-13T07:19:25.063Z,22.85
2023-05-13T07:21:51.749Z,22.88
2023-05-13T07:24:18.094Z,22.87
2023-05-13T07:26:44.642Z,22.87
2023-05-13T07:29:17.057Z,22.92
2023-05-13T07:31:45.445Z,22.96
2023-05-13T07:34:12.086Z,23.07
2023-05-13T07:36:44.092Z,23.10
2023-05-13T07:39:10.546Z,23.22
2023-05-13T07:41:38.410Z,23.21
2023-05-13T07:44:05.877Z,23.22
2023-05-13T07:46:32.596Z,23.30
2023-05-13T07:49:02.717Z,23.06
2023-05-13T07:51:31.790Z,22.66
2023-05-13T07:53:58.761Z,22.60
2023-05-13T07:56:25.393Z,22.59
2023-05-13T07:58:51.967Z,22.42
2023-05-13T08:01:19.338Z,22.41
2023-05-13T08:03:47.131Z,22.33
2023-05-13T08:06:15.413Z,22.45
2023-05-13T08:08:42.226Z,21.90
2023-05-13T08:11:08.861Z,21.89
2023-05-13T08:13:36.566Z,22.21
2023-05-13T08:16:07.276Z,22.37
2023-05-13T08:18:36.059Z,22.55
2023-05-13T08:21:07.426Z,22.69
2023-05-13T08:23:44.736Z,22.67
2023-05-13T08:26:12.065Z,22.68
2023-05-13T08:28:38.912Z,22.69
2023-05-13T08:31:07.854Z,22.71
2023-05-13T08:33:34.473Z,22.81
2023-05-13T08:36:05.306Z,22.81
2023-05-13T08:42:01.074Z,22.84
2023-05-13T08:44:29.020Z,22.85
2023-05-13T08:47:18.076Z,22.75
2023-05-13T08:49:45.306Z,22.71
2023-05-13T08:52:14.714Z,22.85
2023-05-13T08:54:41.786Z,22.81
2023-05-13T08:57:11.545Z,22.79
2023-05-13T08:59:37.863Z,22.81
2023-05-13T09:02:04.336Z,22.78
2023-05-13T09:04:32.694Z,22.81
2023-05-13T09:07:01.433Z,22.82
2023-05-13T09:09:29.189Z,22.87
2023-05-13T09:11:58.141Z,22.93
2023-05-13T09:14:31.528Z,22.91
2023-05-13T09:16:57.867Z,22.88
2023-05-13T09:19:24.934Z,22.89
2023-05-13T09:21:52.135Z,22.98
2023-05-13T09:24:21.212Z,22.91
2023-05-13T09:26:48.023Z,22.92
2023-05-13T09:29:24.357Z,22.91
2023-05-13T09:31:54.713Z,22.99
2023-05-13T09:34:27.128Z,23.00
2023-05-13T09:37:05.460Z,23.02
2023-05-13T09:39:38.036Z,23.07
2023-05-13T09:42:09.204Z,23.07
2023-05-13T09:44:41.660Z,23.05
2023-05-13T09:47:11.789Z,22.99
2023-05-13T09:49:38.224Z,22.93
2023-05-13T09:52:10.268Z,22.91
2023-05-13T09:54:36.691Z,22.89
2023-05-13T09:57:03.342Z,22.98
2023-05-13T09:59:33.954Z,22.99
2023-05-13T10:02:07.860Z,23.00
2023-05-13T10:04:34.650Z,23.04
2023-05-13T10:07:05.134Z,23.05
2023-05-13T10:09:38.568Z,22.97
2023-05-13T10:12:08.938Z,23.03
2023-05-13T10:14:37.337Z,23.04
2023-05-13T10:17:03.771Z,23.05
2023-05-13T10:19:37.660Z,23.02
2023-05-13T10:22:05.007Z,23.07
2023-05-13T10:24:39.897Z,23.07
2023-05-13T10:27:08.014Z,23.03
2023-05-13T10:29:36.936Z,23.05
2023-05-13T10:32:10.160Z,23.06
2023-05-13T10:34:41.304Z,23.09
2023-05-13T10:37:14.226Z,23.04
2023-05-13T10:39:47.690Z,22.97
2023-05-13T10:42:14.611Z,23.03
2023-05-13T10:44:40.961Z,23.06
2023-05-13T10:47:08.742Z,23.04
2023-05-13T10:49:35.617Z,23.05
2023-05-13T10:52:10.929Z,23.01
2023-05-13T10:54:40.814Z,23.00
2023-05-13T10:57:14.926Z,23.00
2023-05-13T11:00:09.312Z,22.92
2023-05-13T11:02:37.904Z,22.85
2023-05-13T11:05:06.882Z,22.92
2023-05-13T11:07:35.075Z,22.82
2023-05-13T11:10:03.279Z,22.94
2023-05-13T11:12:33.018Z,22.97
2023-05-13T11:15:07.846Z,22.86
2023-05-13T11:17:34.677Z,22.83
2023-05-13T11:20:01.262Z,22.65
2023-05-13T11:22:41.510Z,22.74
2023-05-13T11:25:09.838Z,22.68
2023-05-13T11:27:40.902Z,22.82
2023-05-13T11:30:07.855Z,22.80
2023-05-13T11:33:03.058Z,22.88
2023-05-13T11:35:30.486Z,22.80
2023-05-13T11:38:00.407Z,22.84
2023-05-13T11:40:32.053Z,22.78
2023-05-13T11:42:59.851Z,22.88
2023-05-13T11:45:26.904Z,22.79
2023-05-13T11:47:55.082Z,22.74
2023-05-13T11:50:24.476Z,22.80
2023-05-13T11:52:52.674Z,22.82
2023-05-13T11:55:26.293Z,22.79
2023-05-13T11:57:55.643Z,22.84
2023-05-13T12:00:29.174Z,22.86
2023-05-13T12:02:56.200Z,22.84
2023-05-13T12:05:24.390Z,22.79
2023-05-13T12:07:50.944Z,22.88
2023-05-13T12:10:20.603Z,22.90
2023-05-13T12:12:50.650Z,22.92
2023-05-13T12:15:24.151Z,22.95
2023-05-13T12:17:55.756Z,22.95
2023-05-13T12:20:26.075Z,23.08
2023-05-13T12:23:03.591Z,23.09
2023-05-13T12:25:46.727Z,23.11
2023-05-13T12:28:19.334Z,23.13
2023-05-13T12:30:50.266Z,23.07
2023-05-13T12:33:17.656Z,23.09
2023-05-13T12:35:47.884Z,23.08
2023-05-13T12:38:16.359Z,23.07
2023-05-13T12:40:43.041Z,23.05
2023-05-13T12:43:10.787Z,23.03
2023-05-13T12:45:42.615Z,23.06
2023-05-13T12:48:14.787Z,23.01
2023-05-13T12:50:41.432Z,23.02
2023-05-13T12:53:07.854Z,23.04
2023-05-13T12:55:40.086Z,23.08
2023-05-13T12:58:10.195Z,23.03
2023-05-13T13:00:36.900Z,23.05
2023-05-13T13:03:05.366Z,22.97
2023-05-13T13:05:34.776Z,23.00
2023-05-13T13:08:03.729Z,23.01
2023-05-13T13:10:32.617Z,23.02
2023-05-13T13:12:59.166Z,23.00
2023-05-13T13:15:30.048Z,23.05
2023-05-13T13:17:56.652Z,23.04
2023-05-13T13:20:24.076Z,22.90
2023-05-13T13:22:50.976Z,22.95
2023-05-13T13:25:19.148Z,22.96
2023-05-13T13:27:45.598Z,22.94
2023-05-13T13:30:13.421Z,22.96
2023-05-13T13:32:39.837Z,23.05
2023-05-13T13:35:07.400Z,23.00
2023-05-13T13:37:36.130Z,22.96
2023-05-13T13:40:03.058Z,22.98
2023-05-13T13:42:42.745Z,22.97
2023-05-13T13:45:12.605Z,22.87
2023-05-13T13:47:40.771Z,22.91
2023-05-13T13:50:08.588Z,22.91
2023-05-13T13:52:37.637Z,22.95
2023-05-13T13:55:04.112Z,22.89
2023-05-13T13:57:31.628Z,22.88
2023-05-13T14:00:04.238Z,22.85
2023-05-13T14:02:30.761Z,22.89
2023-05-13T14:04:57.181Z,22.91
2023-05-13T14:07:23.789Z,22.85
2023-05-13T14:09:57.958Z,22.83
2023-05-13T14:12:25.559Z,22.86
2023-05-13T14:14:52.123Z,22.91
2023-05-13T14:17:19.068Z,22.88
2023-05-13T14:19:45.442Z,22.86
2023-05-13T14:22:11.980Z,22.82
2023-05-13T14:24:38.650Z,22.82
2023-05-13T14:27:05.138Z,22.80
2023-05-13T14:29:31.523Z,22.77
2023-05-13T14:31:59.353Z,22.82
2023-05-13T14:34:27.369Z,22.76
2023-05-13T14:36:53.689Z,22.81
2023-05-13T14:39:21.210Z,22.81
2023-05-13T14:41:47.585Z,22.80
2023-05-13T14:44:16.265Z,22.79
2023-05-13T14:46:42.938Z,22.80
2023-05-13T14:49:10.024Z,22.83
2023-05-13T14:51:38.891Z,22.76
2023-05-13T14:54:06.565Z,22.70
2023-05-13T14:56:33.593Z,22.76
2023-05-13T14:59:01.625Z,22.80
2023-05-13T15:01:28.170Z,22.90
2023-05-13T15:03:55.129Z,22.85
2023-05-13T15:06:25.522Z,22.78
2023-05-13T15:08:51.843Z,22.79
2023-05-13T15:11:18.523Z,22.82
2023-05-13T15:13:45.230Z,22.81
2023-05-13T15:16:12.471Z,22.86
2023-05-13T15:18:44.789Z,22.86
2023-05-13T15:21:11.136Z,22.84
2023-05-13T15:23:37.465Z,22.84
2023-05-13T15:26:03.789Z,22.88
2023-05-13T15:28:33.223Z,22.84
2023-05-13T15:30:59.647Z,22.82
2023-05-13T15:33:26.706Z,22.76
2023-05-13T15:35:54.355Z,22.72
2023-05-13T15:38:25.381Z,22.74
2023-05-13T15:40:53.361Z,22.69
2023-05-13T15:43:20.000Z,22.64
2023-05-13T15:45:46.610Z,22.60
2023-05-13T15:48:14.743Z,22.59
2023-05-13T15:50:41.742Z,22.59
2023-05-13T15:53:10.207Z,22.58
2023-05-13T15:55:37.431Z,22.60
2023-05-13T15:58:14.366Z,22.62
2023-05-13T16:00:41.383Z,22.63
2023-05-13T16:03:07.756Z,22.60
2023-05-13T16:05:36.757Z,22.57
2023-05-13T16:08:03.095Z,22.56
2023-05-13T16:10:29.677Z,22.57
2023-05-13T16:13:03.132Z,22.48
2023-05-13T16:15:32.580Z,22.52
2023-05-13T16:17:59.014Z,22.45
2023-05-13T16:20:26.215Z,22.49
2023-05-13T16:22:53.374Z,22.43
2023-05-13T16:25:20.252Z,22.35
2023-05-13T16:27:47.463Z,22.37
2023-05-13T16:30:14.566Z,22.41
2023-05-13T16:32:41.250Z,22.37
2023-05-13T16:35:12.209Z,22.28
2023-05-13T16:37:39.763Z,22.33
2023-05-13T16:40:06.904Z,22.35
2023-05-13T16:42:36.278Z,22.21
2023-05-13T16:45:04.008Z,22.21
2023-05-13T16:50:14.571Z,22.18
2023-05-13T16:52:41.284Z,22.17
2023-05-13T16:55:07.767Z,22.12
2023-05-13T16:57:36.737Z,22.10
2023-05-13T17:00:11.894Z,22.09
2023-05-13T17:02:38.374Z,22.04
2023-05-13T17:05:04.908Z,22.03
2023-05-13T17:07:31.552Z,22.04
2023-05-13T17:09:58.264Z,22.06
2023-05-13T17:12:26.635Z,22.01
2023-05-13T17:14:53.308Z,21.99
2023-05-13T17:17:21.179Z,21.99
2023-05-13T17:19:47.820Z,21.94
2023-05-13T17:22:14.166Z,21.91
2023-05-13T17:24:40.505Z,21.91
2023-05-13T17:27:08.872Z,21.87
2023-05-13T17:29:35.876Z,21.89
2023-05-13T17:32:02.435Z,21.85
2023-05-13T17:34:31.928Z,21.84
2023-05-13T17:36:59.532Z,21.86
2023-05-13T17:39:26.109Z,21.81
2023-05-13T17:41:52.869Z,21.75
2023-05-13T17:44:19.997Z,21.72
2023-05-13T17:46:47.641Z,21.73
2023-05-13T17:49:14.091Z,21.56
2023-05-13T17:51:41.868Z,21.55
2023-05-13T17:54:08.259Z,21.61
2023-05-13T17:56:34.885Z,21.46
2023-05-13T17:59:01.444Z,21.36
2023-05-13T18:01:28.016Z,21.77
2023-05-13T18:03:55.385Z,21.94
2023-05-13T18:06:22.723Z,21.97
2023-05-13T18:08:57.110Z,22.07
2023-05-13T18:11:23.420Z,22.10
2023-05-13T18:13:50.427Z,22.12
2023-05-13T18:16:19.416Z,22.13
2023-05-13T18:18:48.426Z,22.12
2023-05-13T18:21:17.476Z,22.16
2023-05-13T18:23:46.478Z,22.14
2023-05-13T18:26:12.804Z,22.16
2023-05-13T18:28:43.700Z,22.17
2023-05-13T18:31:10.295Z,22.18
2023-05-13T18:36:19.148Z,22.18
2023-05-13T18:38:48.046Z,22.20
2023-05-13T18:41:17.380Z,22.19
2023-05-13T18:43:51.144Z,22.21
2023-05-13T18:46:18.606Z,22.13
2023-05-13T18:48:45.380Z,22.15
2023-05-13T18:51:11.992Z,22.18
2023-05-13T18:53:38.309Z,22.23
2023-05-13T18:56:04.721Z,22.25
2023-05-13T18:58:31.508Z,22.23
2023-05-13T19:01:08.522Z,22.26
2023-05-13T19:03:37.489Z,22.26
2023-05-13T19:06:05.155Z,22.29
2023-05-13T19:08:31.706Z,22.29
2023-05-13T19:10:58.039Z,22.31
2023-05-13T19:13:33.166Z,22.28
2023-05-13T19:16:06.005Z,22.29
2023-05-13T19:18:34.133Z,22.31
2023-05-13T19:21:01.100Z,22.31
2023-05-13T19:23:29.264Z,22.32
2023-05-13T19:25:55.902Z,22.31
2023-05-13T19:28:22.566Z,22.31
2023-05-13T19:30:49.994Z,22.31
2023-05-13T19:33:17.669Z,22.30
2023-05-13T19:35:44.993Z,22.28
2023-05-13T19:38:11.630Z,22.31
2023-05-13T19:40:41.758Z,22.30
2023-05-13T19:43:08.072Z,22.29
2023-05-13T19:45:34.468Z,22.31
2023-05-13T19:48:00.886Z,22.31
2023-05-13T19:50:28.743Z,22.29
2023-05-13T19:53:04.176Z,22.28
2023-05-13T19:55:30.588Z,22.28
2023-05-13T19:57:58.331Z,22.28
2023-05-13T20:00:25.381Z,22.29
2023-05-13T20:02:53.454Z,22.31
2023-05-13T20:05:22.879Z,22.19
2023-05-13T20:07:50.773Z,22.30
2023-05-13T20:10:17.323Z,22.29
2023-05-13T20:12:44.456Z,22.27
2023-05-13T20:15:11.898Z,22.29
2023-05-13T20:17:39.555Z,22.29
2023-05-13T20:20:07.142Z,22.27
2023-05-13T20:22:33.468Z,22.27
2023-05-13T20:24:59.797Z,22.25
2023-05-13T20:27:26.381Z,22.28
2023-05-13T20:29:52.937Z,22.26
2023-05-13T20:32:25.013Z,22.27
2023-05-13T20:34:54.570Z,22.27
2023-05-13T20:37:24.163Z,22.26
2023-05-13T20:39:50.696Z,22.26
2023-05-13T20:42:17.554Z,22.25
2023-05-13T20:44:48.116Z,22.25
2023-05-13T20:47:26.058Z,22.24
2023-05-13T20:49:53.775Z,22.23
2023-05-13T20:52:20.380Z,22.23
2023-05-13T20:54:47.306Z,22.23
2023-05-13T20:57:14.403Z,22.23
2023-05-13T20:59:42.296Z,22.23
2023-05-13T21:02:08.880Z,22.24
2023-05-13T21:04:36.631Z,22.22
2023-05-13T21:07:05.193Z,22.22
2023-05-13T21:09:33.509Z,22.19
2023-05-13T21:11:59.872Z,22.20
2023-05-13T21:14:27.249Z,22.20
2023-05-13T21:16:55.883Z,22.19
2023-05-13T21:19:25.726Z,22.19
2023-05-13T21:21:53.680Z,22.17
2023-05-13T21:24:20.642Z,22.15
2023-05-13T21:26:47.287Z,22.17
2023-05-13T21:29:13.951Z,22.18
2023-05-13T21:31:40.324Z,22.17
2023-05-13T21:34:07.145Z,22.18
2023-05-13T21:36:35.719Z,22.05
2023-05-13T21:39:02.035Z,22.09
2023-05-13T21:41:29.934Z,22.10
2023-05-13T21:43:57.306Z,22.10
2023-05-13T21:46:23.870Z,22.10
2023-05-13T21:48:54.511Z,22.11
2023-05-13T21:51:20.904Z,22.12
2023-05-13T21:53:48.815Z,22.12
2023-05-13T21:56:16.928Z,22.12
2023-05-13T21:58:44.710Z,22.11
2023-05-13T22:01:11.398Z,22.11
2023-05-13T22:03:40.107Z,22.11
2023-05-13T22:06:06.864Z,22.11
2023-05-13T22:08:35.733Z,22.11
2023-05-13T22:11:03.114Z,22.11
2023-05-13T22:13:30.433Z,22.10
2023-05-13T22:15:59.480Z,22.10
2023-05-13T22:18:26.217Z,22.10
2023-05-13T22:20:53.948Z,22.09
2023-05-13T22:23:20.290Z,22.08
2023-05-13T22:25:46.938Z,22.05
2023-05-13T22:28:13.317Z,22.08
2023-05-13T22:30:39.637Z,22.07
2023-05-13T22:33:06.522Z,22.07
2023-05-13T22:35:36.245Z,22.06
2023-05-13T22:38:09.896Z,22.03
2023-05-13T22:40:37.990Z,22.07
2023-05-13T22:43:04.378Z,22.06
2023-05-13T22:45:30.701Z,22.07
2023-05-13T22:47:57.288Z,22.06
2023-05-13T22:50:24.712Z,22.07
2023-05-13T22:52:53.732Z,22.07
2023-05-13T22:55:22.075Z,22.06
2023-05-13T22:57:48.476Z,22.06
2023-05-13T23:00:15.271Z,22.08
2023-05-13T23:02:41.670Z,22.06
2023-05-13T23:05:08.009Z,22.06
2023-05-13T23:07:34.678Z,22.06
2023-05-13T23:10:00.998Z,22.06
2023-05-13T23:12:29.013Z,22.05
2023-05-13T23:14:57.760Z,22.06
2023-05-13T23:17:25.730Z,22.06
2023-05-13T23:19:52.430Z,22.05
2023-05-13T23:22:18.753Z,22.06
2023-05-13T23:24:45.297Z,22.05
2023-05-13T23:27:12.296Z,22.05
2023-05-13T23:29:38.634Z,22.05
2023-05-13T23:32:06.804Z,22.04
2023-05-13T23:34:35.570Z,22.04
2023-05-13T23:37:02.123Z,22.05
2023-05-13T23:39:30.081Z,22.04
2023-05-13T23:41:56.718Z,22.03
2023-05-13T23:44:23.070Z,22.02
2023-05-13T23:46:50.668Z,22.02
2023-05-13T23:49:17.056Z,22.01
2023-05-13T23:51:44.085Z,21.99
2023-05-13T23:54:10.440Z,22.00
2023-05-13T23:56:39.655Z,22.00
2023-05-13T23:59:06.338Z,21.99
